Time;durP1;ratioP1;P1;durP2;ratioP2;P2;SDS_P1;SDS_P2;PMS_P1;PMS_P2;Temp;Humidity;BMP_temperature;BMP_pressure;BME280_temperature;BME280_humidity;BME280_pressure;Samples;Min_cycle;Max_cycle;Signal;HPM_P1;HPM_P2
2021/12/31 00:00:50;;;;;;;1.92;1.13;;;;;;;18.34;55.72;101542.09;5028247;28;20073;-78
2021/12/31 00:03:17;;;;;;;2.67;1.27;;;;;;;18.36;55.78;101544.72;5029719;28;20103;-78
2021/12/31 00:05:44;;;;;;;2.72;1.35;;;;;;;18.36;56.18;101536.47;5012005;28;20488;-79
2021/12/31 00:08:11;;;;;;;2.90;1.50;;;;;;;18.37;56.09;101540.91;5026607;28;20084;-78
2021/12/31 00:10:39;;;;;;;5.07;2.25;;;;;;;18.36;55.67;101541.97;5027069;28;20072;-79
2021/12/31 00:13:05;;;;;;;4.38;1.80;;;;;;;18.36;55.78;101539.22;5029020;28;20072;-78
2021/12/31 00:15:32;;;;;;;4.95;2.20;;;;;;;18.36;55.77;101531.84;5030459;28;20128;-78
2021/12/31 00:17:59;;;;;;;4.55;2.25;;;;;;;18.36;55.67;101529.09;5029409;28;20643;-78
2021/12/31 00:20:26;;;;;;;3.20;1.70;;;;;;;18.37;55.90;101539.03;5029540;28;20141;-78
2021/12/31 00:25:20;;;;;;;5.13;1.90;;;;;;;18.38;55.88;101535.28;5027209;28;20073;-78
2021/12/31 00:27:46;;;;;;;5.55;1.98;;;;;;;18.38;56.00;101534.41;5011394;28;20450;-78
2021/12/31 00:30:14;;;;;;;3.83;1.52;;;;;;;18.38;55.42;101532.53;5030239;28;20587;-78
2021/12/31 00:32:41;;;;;;;4.85;1.77;;;;;;;18.38;55.63;101526.19;5029163;28;20067;-78
2021/12/31 00:35:09;;;;;;;3.30;1.80;;;;;;;18.39;55.46;101522.41;5029129;28;20156;-78
2021/12/31 00:37:37;;;;;;;2.90;1.60;;;;;;;18.40;55.67;101521.41;5034149;28;20145;-78
2021/12/31 00:40:10;;;;;;;4.20;1.65;;;;;;;18.41;55.67;101529.53;5029405;28;20119;-78
2021/12/31 00:42:37;;;;;;;3.10;1.63;;;;;;;18.39;55.78;101526.03;5023354;28;20124;-78
2021/12/31 00:45:07;;;;;;;3.05;1.55;;;;;;;18.40;55.68;101519.53;5031389;28;20084;-78
2021/12/31 00:47:33;;;;;;;5.65;1.85;;;;;;;18.38;55.73;101516.03;5028435;28;20095;-78
2021/12/31 00:50:00;;;;;;;3.63;1.52;;;;;;;18.39;55.66;101517.78;5028762;28;20085;-78
2021/12/31 00:52:27;;;;;;;4.50;1.58;;;;;;;18.38;55.07;101518.78;5027046;28;20069;-78
2021/12/31 00:54:56;;;;;;;3.20;1.45;;;;;;;18.38;55.37;101521.53;5015700;28;20152;-78
2021/12/31 00:57:23;;;;;;;3.83;1.70;;;;;;;18.38;55.57;101510.56;5026676;28;20114;-78
2021/12/31 00:59:50;;;;;;;4.13;1.88;;;;;;;18.38;55.57;101521.53;5023092;28;20046;-78
2021/12/31 01:02:18;;;;;;;3.55;1.63;;;;;;;18.39;55.34;101525.16;5023926;28;20099;-79
2021/12/31 01:04:45;;;;;;;3.63;1.58;;;;;;;18.39;55.57;101525.16;5029652;28;20141;-78
2021/12/31 01:07:12;;;;;;;3.85;1.70;;;;;;;18.39;55.36;101528.78;5027553;28;20493;-78
2021/12/31 01:09:38;;;;;;;3.85;2.05;;;;;;;18.39;55.08;101525.16;5034393;28;20429;-78
2021/12/31 01:12:07;;;;;;;4.15;1.65;;;;;;;18.39;55.41;101528.78;5027053;28;20074;-80
2021/12/31 01:14:40;;;;;;;2.75;1.60;;;;;;;18.40;55.07;101526.91;5014330;28;20179;-78
2021/12/31 01:17:11;;;;;;;3.80;1.50;;;;;;;18.40;55.35;101521.41;5021797;28;20069;-79
2021/12/31 01:19:46;;;;;;;5.45;1.98;;;;;;;18.40;55.22;101526.91;5029321;28;20072;-78
2021/12/31 01:22:18;;;;;;;3.03;1.80;;;;;;;18.41;54.67;101529.53;5020993;28;20087;-79
2021/12/31 01:24:45;;;;;;;3.58;1.48;;;;;;;18.39;55.13;101527.91;5015788;28;20132;-78
2021/12/31 01:27:13;;;;;;;3.40;1.50;;;;;;;18.40;54.98;101538.78;5025978;28;20069;-79
2021/12/31 01:29:40;;;;;;;3.08;1.85;;;;;;;18.39;54.80;101526.03;5028568;28;20045;-78
2021/12/31 01:32:07;;;;;;;2.80;1.50;;;;;;;18.40;55.14;101524.16;5023905;28;20468;-78
2021/12/31 01:34:34;;;;;;;4.03;1.85;;;;;;;18.40;54.76;101529.66;5028173;28;20148;-78
2021/12/31 01:37:01;;;;;;;2.50;1.50;;;;;;;18.39;55.04;101526.03;5011656;28;20119;-78
2021/12/31 01:39:28;;;;;;;3.45;1.85;;;;;;;18.40;55.00;101532.41;5027826;28;20382;-78
2021/12/31 01:41:58;;;;;;;2.88;1.38;;;;;;;18.40;55.00;101533.28;5027638;28;20389;-78
2021/12/31 01:44:33;;;;;;;2.63;1.60;;;;;;;18.40;55.21;101524.16;5041317;28;20125;-78
2021/12/31 01:47:04;;;;;;;2.72;1.42;;;;;;;18.40;54.53;101525.03;5011047;28;20069;-78
2021/12/31 01:49:34;;;;;;;4.10;1.38;;;;;;;18.40;54.95;101521.41;5043608;28;20049;-78
2021/12/31 01:52:01;;;;;;;3.75;1.55;;;;;;;18.39;54.64;101522.41;5024651;28;20103;-78
2021/12/31 01:54:29;;;;;;;2.63;1.48;;;;;;;18.40;54.79;101526.91;5031046;28;20060;-78
2021/12/31 01:57:00;;;;;;;3.20;1.60;;;;;;;18.39;54.96;101528.78;5010212;28;20381;-78
2021/12/31 01:59:28;;;;;;;3.42;1.38;;;;;;;18.39;54.48;101530.66;5027476;28;20125;-78
2021/12/31 02:01:58;;;;;;;2.78;1.38;;;;;;;18.40;54.65;101516.78;5025091;28;20144;-78
2021/12/31 02:04:26;;;;;;;1.88;1.20;;;;;;;18.38;55.08;101520.69;5036705;28;20056;-78
2021/12/31 02:06:53;;;;;;;4.22;1.60;;;;;;;18.38;54.75;101523.44;5027802;28;20103;-78
2021/12/31 02:09:21;;;;;;;2.45;1.20;;;;;;;18.37;54.63;101522.56;5012540;28;20045;-78
2021/12/31 02:11:48;;;;;;;2.08;1.20;;;;;;;18.37;54.78;101525.31;5031062;28;20478;-78
2021/12/31 02:14:18;;;;;;;2.10;1.20;;;;;;;18.38;54.98;101517.94;5030575;28;20447;-78
2021/12/31 02:16:45;;;;;;;2.75;1.38;;;;;;;18.37;54.74;101525.31;5022284;28;20501;-78
2021/12/31 02:19:13;;;;;;;2.05;1.23;;;;;;;18.37;54.65;101529.94;5038625;28;20041;-78
2021/12/31 02:21:46;;;;;;;3.83;1.30;;;;;;;18.39;54.72;101531.53;5018575;28;20052;-78
2021/12/31 02:24:14;;;;;;;;;;;;;;;18.11;55.01;101530.38;5029081;28;20068;-78
2021/12/31 02:26:40;;;;;;;2.97;1.40;;;;;;;18.32;55.08;101521.22;5010500;28;20008;-78
2021/12/31 02:29:08;;;;;;;2.95;1.30;;;;;;;18.36;54.61;101522.72;5028052;28;20069;-78
2021/12/31 02:31:34;;;;;;;2.72;1.30;;;;;;;18.36;54.68;101531.84;5026862;28;20232;-78
2021/12/31 02:34:01;;;;;;;2.85;1.20;;;;;;;18.35;54.64;101527.34;5027076;28;20072;-78
2021/12/31 02:36:28;;;;;;;3.28;1.15;;;;;;;18.36;54.75;101529.09;5030727;28;20065;-79
2021/12/31 02:38:54;;;;;;;2.95;1.40;;;;;;;18.36;54.44;101517.22;5027210;28;20140;-78
2021/12/31 02:41:21;;;;;;;2.95;1.30;;;;;;;18.36;54.79;101528.22;5026158;28;20046;-78
2021/12/31 02:43:48;;;;;;;2.10;1.20;;;;;;;18.35;54.72;101515.47;5027050;28;20041;-79
2021/12/31 02:46:15;;;;;;;2.47;1.40;;;;;;;18.35;54.34;101519.09;5027150;28;20045;-78
2021/12/31 02:48:41;;;;;;;4.13;1.33;;;;;;;18.34;54.38;101520.09;5020856;28;20042;-79
2021/12/31 02:51:08;;;;;;;2.95;1.20;;;;;;;18.35;54.30;101516.34;5025133;28;20069;-78
2021/12/31 02:53:42;;;;;;;2.13;1.20;;;;;;;18.39;53.62;101512.28;5025482;28;20045;-79
2021/12/31 02:56:11;;;;;;;2.60;1.27;;;;;;;18.37;53.82;101517.06;5037980;28;20080;-78
2021/12/31 02:58:39;;;;;;;4.70;1.60;;;;;;;18.36;54.08;101514.47;5025641;28;20137;-79
2021/12/31 03:01:08;;;;;;;2.42;1.20;;;;;;;18.36;54.22;101517.22;5031715;28;20041;-78
2021/12/31 03:03:36;;;;;;;2.25;1.20;;;;;;;18.36;54.59;101525.47;5041126;28;20037;-78
2021/12/31 03:06:03;;;;;;;2.47;1.20;;;;;;;18.36;54.19;101525.47;5026326;28;20611;-78
2021/12/31 03:08:43;;;;;;;2.70;1.35;;;;;;;18.37;53.52;101516.19;5027508;28;20037;-78
2021/12/31 03:11:10;;;;;;;2.90;1.38;;;;;;;18.34;54.24;101510.97;5040942;28;20535;-78
2021/12/31 03:13:39;;;;;;;2.72;1.27;;;;;;;18.35;53.98;101523.72;5027974;28;20440;-78
2021/12/31 03:16:07;;;;;;;1.67;1.00;;;;;;;18.36;53.95;101519.97;5026336;28;20076;-78
2021/12/31 03:18:34;;;;;;;3.00;1.30;;;;;;;18.35;54.12;101513.59;5031049;28;20520;-78
2021/12/31 03:21:05;;;;;;;2.80;1.00;;;;;;;18.36;54.25;101518.09;5028020;28;20452;-79
2021/12/31 03:23:32;;;;;;;2.95;1.20;;;;;;;18.36;53.84;101515.34;5031474;28;20121;-78
2021/12/31 03:25:59;;;;;;;2.33;1.15;;;;;;;18.36;54.09;101514.47;5034512;28;20100;-79
2021/12/31 03:28:26;;;;;;;2.25;1.35;;;;;;;18.36;54.26;101514.47;5035589;28;20137;-78
2021/12/31 03:30:56;;;;;;;2.17;1.10;;;;;;;18.35;54.14;101508.09;5029991;28;20111;-78
2021/12/31 03:33:24;;;;;;;3.10;1.60;;;;;;;18.35;53.84;101512.72;5029030;28;20033;-79
2021/12/31 03:35:50;;;;;;;2.70;1.20;;;;;;;18.36;53.70;101514.47;5022814;28;20127;-79
2021/12/31 03:38:17;;;;;;;2.70;1.13;;;;;;;18.35;53.45;101508.09;5027726;28;20080;-78
2021/12/31 03:40:46;;;;;;;2.00;1.08;;;;;;;18.36;54.08;101512.59;5022996;28;20095;-79
2021/12/31 03:43:14;;;;;;;3.80;1.33;;;;;;;18.37;53.82;101502.44;5029568;28;20464;-78
2021/12/31 03:45:41;;;;;;;2.38;1.23;;;;;;;18.37;53.64;101496.94;5027963;28;20046;-79
2021/12/31 03:48:08;;;;;;;2.42;1.23;;;;;;;18.37;53.82;101505.19;5028102;28;20041;-79
2021/12/31 03:50:35;;;;;;;2.80;1.30;;;;;;;18.36;53.60;101497.97;5045395;28;20073;-78
2021/12/31 03:53:02;;;;;;;3.20;1.40;;;;;;;18.37;53.94;101495.06;5012202;28;20132;-78
2021/12/31 03:55:30;;;;;;;1.83;1.30;;;;;;;18.37;53.82;101484.06;5033896;28;20053;-78
2021/12/31 03:57:56;;;;;;;1.98;1.00;;;;;;;18.36;53.26;101486.97;5028980;28;20049;-78
2021/12/31 04:00:23;;;;;;;1.95;1.20;;;;;;;18.36;53.68;101490.59;5031169;28;20140;-78
2021/12/31 04:02:49;;;;;;;3.15;1.10;;;;;;;18.37;53.69;101485.94;5028584;28;20045;-78
2021/12/31 04:05:16;;;;;;;1.73;1.10;;;;;;;18.38;53.91;101485.81;5023388;28;20068;-78
2021/12/31 04:07:43;;;;;;;2.60;1.15;;;;;;;18.38;53.46;101479.44;5024357;28;20135;-78
2021/12/31 04:10:10;;;;;;;2.25;1.08;;;;;;;18.37;53.37;101484.06;5040597;28;20088;-78
2021/12/31 04:12:36;;;;;;;1.92;0.90;;;;;;;18.38;53.41;101479.44;5027753;28;20132;-78
2021/12/31 04:15:03;;;;;;;2.53;1.15;;;;;;;18.38;53.48;101484.94;5036320;28;20053;-78
2021/12/31 04:17:30;;;;;;;2.72;0.90;;;;;;;18.38;53.82;101487.69;5014964;28;20045;-79
2021/12/31 04:19:57;;;;;;;2.53;1.30;;;;;;;18.38;53.54;101479.44;5029828;28;20180;-78
2021/12/31 04:22:27;;;;;;;2.47;1.15;;;;;;;18.39;53.31;101487.56;5016238;28;20049;-79
2021/12/31 04:24:54;;;;;;;2.22;1.00;;;;;;;18.39;53.34;101483.94;5022907;28;20136;-78
2021/12/31 04:27:22;;;;;;;2.00;0.90;;;;;;;18.41;53.42;101488.28;5028031;28;20078;-79
2021/12/31 04:29:51;;;;;;;2.67;0.98;;;;;;;18.40;53.60;101483.78;5037904;28;20076;-79
2021/12/31 04:32:20;;;;;;;1.75;0.98;;;;;;;18.40;53.64;101480.19;5028783;28;20492;-79
2021/12/31 04:34:47;;;;;;;2.22;1.05;;;;;;;18.39;53.57;101468.31;5024256;28;20065;-79
2021/12/31 04:37:13;;;;;;;1.58;1.00;;;;;;;18.39;53.47;101484.81;5027249;28;20171;-79
2021/12/31 04:39:43;;;;;;;2.22;1.25;;;;;;;18.41;53.16;101485.53;5028807;28;20132;-79
2021/12/31 04:42:09;;;;;;;1.52;1.00;;;;;;;18.38;53.60;101488.56;5027660;28;20057;-79
2021/12/31 04:44:36;;;;;;;2.50;1.30;;;;;;;18.39;53.82;101484.81;5029623;28;20119;-79
2021/12/31 04:47:03;;;;;;;1.77;0.95;;;;;;;18.38;53.38;101484.94;5028030;28;20464;-78
2021/12/31 04:49:30;;;;;;;1.98;1.10;;;;;;;18.37;53.08;101484.06;5029052;28;20053;-78
2021/12/31 04:51:57;;;;;;;1.73;0.98;;;;;;;18.37;53.76;101491.44;5026328;28;20544;-79
2021/12/31 04:54:23;;;;;;;2.17;1.00;;;;;;;18.36;53.69;101479.59;5026520;28;20054;-79
2021/12/31 04:56:53;;;;;;;2.20;0.98;;;;;;;18.36;53.58;101476.84;5028683;28;20064;-79
2021/12/31 04:59:21;;;;;;;1.75;1.02;;;;;;;18.37;53.23;101478.56;5011213;28;20140;-79
2021/12/31 05:01:53;;;;;;;1.52;1.00;;;;;;;18.36;53.10;101474.09;5027450;28;20053;-79
2021/12/31 05:04:20;;;;;;;2.25;1.00;;;;;;;18.35;53.29;101469.59;5025751;28;20050;-79
2021/12/31 05:06:49;;;;;;;2.55;1.02;;;;;;;18.36;53.09;101473.22;5028455;28;20041;-79
2021/12/31 05:09:17;;;;;;;2.15;0.90;;;;;;;18.35;53.14;101483.34;5043689;28;20049;-79
2021/12/31 05:11:44;;;;;;;2.28;1.00;;;;;;;18.35;53.08;101479.72;5027273;28;20073;-79
2021/12/31 05:14:11;;;;;;;1.67;0.90;;;;;;;18.33;53.34;101482.59;5029801;28;20132;-79
2021/12/31 05:16:37;;;;;;;2.15;1.10;;;;;;;18.33;52.88;101476.25;5031584;28;20049;-79
2021/12/31 05:19:05;;;;;;;1.70;1.02;;;;;;;18.33;52.96;101489.97;5028674;28;20542;-79
2021/12/31 05:21:32;;;;;;;3.10;1.38;;;;;;;18.32;53.22;101485.50;5030477;28;20558;-79
2021/12/31 05:23:59;;;;;;;1.58;0.95;;;;;;;18.31;53.53;101481.88;5033291;28;20358;-79
2021/12/31 05:26:26;;;;;;;2.13;1.00;;;;;;;18.30;53.08;101480.13;5022588;28;20128;-79
2021/12/31 05:28:53;;;;;;;1.20;0.70;;;;;;;18.30;53.57;101476.50;5028303;28;20085;-79
2021/12/31 05:31:19;;;;;;;1.65;0.98;;;;;;;18.29;53.49;101480.25;5027318;28;20045;-79
2021/12/31 05:33:46;;;;;;;3.05;1.00;;;;;;;18.28;53.11;101473.91;5029017;28;20132;-79
2021/12/31 05:36:13;;;;;;;1.98;0.90;;;;;;;18.28;53.18;101476.66;5027277;28;20101;-79
2021/12/31 05:38:40;;;;;;;2.15;1.25;;;;;;;18.28;53.09;101467.53;5027982;28;20156;-79
2021/12/31 05:41:06;;;;;;;2.22;1.13;;;;;;;18.29;53.13;101463.75;5026269;28;20068;-79
2021/12/31 05:43:33;;;;;;;1.73;1.10;;;;;;;18.28;52.88;101470.28;5028538;28;20389;-79
2021/12/31 05:46:00;;;;;;;2.53;1.10;;;;;;;18.28;53.04;101468.41;5029012;28;20132;-79
2021/12/31 05:48:26;;;;;;;1.40;0.90;;;;;;;18.28;53.37;101473.03;5035645;28;20135;-79
2021/12/31 05:50:53;;;;;;;2.63;1.15;;;;;;;18.26;53.22;101464.94;5034959;28;20063;-78
2021/12/31 05:53:20;;;;;;;2.03;1.00;;;;;;;18.26;53.29;101475.94;5020838;28;20159;-79
2021/12/31 05:55:46;;;;;;;1.85;0.93;;;;;;;18.25;53.06;101466.81;5028356;28;20077;-79
2021/12/31 05:58:13;;;;;;;2.50;1.10;;;;;;;18.24;53.25;101466.94;5027708;28;20053;-79
2021/12/31 06:00:40;;;;;;;2.17;0.90;;;;;;;18.24;53.20;101464.19;5008837;28;20821;-79
2021/12/31 06:03:06;;;;;;;2.67;1.08;;;;;;;18.23;53.15;101467.94;5038621;28;20056;-79
2021/12/31 06:05:33;;;;;;;2.53;1.20;;;;;;;18.22;53.42;101463.44;5028300;28;20053;-79
2021/12/31 06:08:00;;;;;;;1.65;1.10;;;;;;;18.21;53.00;101458.94;5030298;28;20136;-79
2021/12/31 06:10:26;;;;;;;2.78;1.00;;;;;;;18.20;52.86;101469.06;5027386;28;20053;-79
2021/12/31 06:12:57;;;;;;;1.40;1.15;;;;;;;18.21;52.92;101461.69;5041936;28;20099;-78
2021/12/31 06:15:26;;;;;;;2.78;1.20;;;;;;;18.19;53.16;101459.13;5028216;28;20201;-79
2021/12/31 06:17:53;;;;;;;1.27;1.00;;;;;;;18.18;53.29;101456.50;5034918;28;20044;-79
2021/12/31 06:20:19;;;;;;;1.73;0.95;;;;;;;18.17;53.39;101452.88;5025792;28;20111;-79
2021/12/31 06:22:46;;;;;;;1.77;1.05;;;;;;;18.17;52.84;101461.13;5025081;28;20115;-79
2021/12/31 06:25:13;;;;;;;2.72;1.20;;;;;;;18.16;52.79;101469.50;5010543;28;20049;-78
2021/12/31 06:27:42;;;;;;;1.42;0.90;;;;;;;18.17;52.90;101471.25;5027702;28;20103;-79
2021/12/31 06:30:11;;;;;;;3.58;0.93;;;;;;;18.13;53.33;101462.38;5015261;28;20049;-79
2021/12/31 06:32:38;;;;;;;2.40;1.10;;;;;;;18.15;53.14;101471.38;5023199;28;20049;-79
2021/12/31 06:35:05;;;;;;;2.03;1.10;;;;;;;18.15;53.12;101485.13;5028417;28;20124;-79
2021/12/31 06:37:32;;;;;;;2.03;1.08;;;;;;;18.15;53.14;101478.75;5025742;28;20072;-79
2021/12/31 06:40:03;;;;;;;2.25;1.30;;;;;;;18.14;52.90;101471.50;5012054;28;20083;-79
2021/12/31 06:42:30;;;;;;;2.08;1.00;;;;;;;18.13;53.18;101486.25;5025364;28;20137;-79
2021/12/31 06:44:57;;;;;;;2.42;1.00;;;;;;;18.12;52.91;101485.38;5026624;28;20045;-79
2021/12/31 06:47:24;;;;;;;2.03;1.10;;;;;;;18.11;52.99;101483.66;5027020;28;20489;-79
2021/12/31 06:49:50;;;;;;;2.05;1.05;;;;;;;18.12;52.88;101485.38;5031384;28;20144;-78
2021/12/31 06:52:17;;;;;;;2.65;1.20;;;;;;;18.10;53.02;101478.28;5029872;28;20041;-79
2021/12/31 06:54:44;;;;;;;2.60;1.10;;;;;;;18.10;52.99;101465.44;5035104;28;20119;-79
2021/12/31 06:57:10;;;;;;;3.00;1.10;;;;;;;18.10;52.77;101453.56;5030641;28;20091;-79
2021/12/31 06:59:37;;;;;;;1.67;1.08;;;;;;;18.08;53.18;101450.94;5032069;28;20489;-79
2021/12/31 07:02:03;;;;;;;2.17;1.25;;;;;;;18.08;53.11;101448.19;5011601;28;20045;-79
2021/12/31 07:04:30;;;;;;;2.15;1.10;;;;;;;18.07;52.67;101451.06;5025181;28;20133;-79
2021/12/31 07:06:57;;;;;;;2.55;1.00;;;;;;;18.06;52.80;101457.56;5029867;28;20045;-79
2021/12/31 07:09:29;;;;;;;2.45;1.38;;;;;;;18.05;52.83;101456.69;5014831;28;20447;-79
2021/12/31 07:11:58;;;;;;;2.00;1.20;;;;;;;18.03;52.67;101457.88;5030019;28;20041;-79
2021/12/31 07:14:24;;;;;;;2.05;1.10;;;;;;;18.02;52.59;101456.13;5031280;28;20073;-79
2021/12/31 07:16:51;;;;;;;1.58;1.10;;;;;;;18.01;52.56;101476.34;5030011;28;20064;-78
2021/12/31 07:19:18;;;;;;;2.63;1.20;;;;;;;17.99;53.01;101471.00;5014148;28;20046;-78
2021/12/31 07:21:45;;;;;;;2.85;1.35;;;;;;;17.98;52.65;101477.50;5030985;28;20085;-78
2021/12/31 07:24:11;;;;;;;1.75;1.13;;;;;;;17.97;52.46;101478.50;5030842;28;20049;-78
2021/12/31 07:26:38;;;;;;;2.35;1.45;;;;;;;17.96;52.59;101482.25;5030797;28;20041;-79
2021/12/31 07:29:04;;;;;;;2.25;1.13;;;;;;;17.95;52.52;101490.66;5030119;28;20407;-78
2021/12/31 07:31:31;;;;;;;2.03;1.15;;;;;;;17.94;52.42;101486.16;5029370;28;20124;-78
2021/12/31 07:33:58;;;;;;;2.70;1.17;;;;;;;17.91;52.55;101481.78;5028872;28;20208;-79
2021/12/31 07:36:27;;;;;;;2.95;1.42;;;;;;;17.90;52.75;101480.03;5012130;28;20452;-78
2021/12/31 07:39:06;;;;;;;4.00;1.20;;;;;;;17.89;52.44;101486.53;5026567;28;20558;-79
2021/12/31 07:41:34;;;;;;;2.63;1.30;;;;;;;17.87;52.51;101491.31;5026939;28;20045;-79
2021/12/31 07:44:00;;;;;;;1.85;1.30;;;;;;;17.86;52.46;101479.47;5029915;28;20148;-79
2021/12/31 07:46:27;;;;;;;2.50;1.40;;;;;;;17.84;52.47;101475.97;5025741;28;20041;-79
2021/12/31 07:48:54;;;;;;;2.22;1.42;;;;;;;17.83;52.61;101476.97;5026892;28;20050;-79
2021/12/31 07:51:20;;;;;;;2.33;1.27;;;;;;;17.80;52.35;101482.72;5044695;28;20115;-80
2021/12/31 07:53:47;;;;;;;2.08;1.20;;;;;;;17.79;52.69;101489.22;5029236;28;20162;-80
2021/12/31 07:56:18;;;;;;;2.05;1.30;;;;;;;17.78;52.53;101481.13;5029323;28;20061;-79
2021/12/31 07:58:48;;;;;;;1.77;1.10;;;;;;;17.78;52.22;101490.25;5005774;28;20425;-79
2021/12/31 08:01:16;;;;;;;3.28;1.10;;;;;;;17.75;52.78;101489.63;5028301;28;20448;-81
2021/12/31 08:03:44;;;;;;;2.60;1.48;;;;;;;17.73;52.42;101477.88;5028600;28;20041;-80
2021/12/31 08:06:11;;;;;;;3.30;1.63;;;;;;;17.74;52.44;101482.38;5031357;28;20041;-80
2021/12/31 08:08:37;;;;;;;2.50;1.33;;;;;;;17.73;52.62;101494.38;5038698;28;20045;-80
2021/12/31 08:11:07;;;;;;;4.30;1.60;;;;;;;17.72;52.53;101489.88;5031090;28;20163;-80
2021/12/31 08:13:34;;;;;;;2.35;1.45;;;;;;;17.72;52.63;101488.00;5025344;28;20064;-80
2021/12/31 08:16:01;;;;;;;2.65;1.25;;;;;;;17.70;52.38;101491.91;5029625;28;20045;-80
2021/12/31 08:18:28;;;;;;;2.72;1.55;;;;;;;17.70;52.94;101491.91;5031172;28;20044;-80
2021/12/31 08:20:54;;;;;;;2.42;1.27;;;;;;;17.69;52.43;101495.66;5029425;28;20053;-80
2021/12/31 08:23:21;;;;;;;3.03;1.40;;;;;;;17.67;52.59;101494.91;5017695;28;20397;-79
2021/12/31 08:25:48;;;;;;;3.60;1.73;;;;;;;17.67;52.52;101495.78;5032681;28;20084;-79
2021/12/31 08:28:15;;;;;;;3.00;1.20;;;;;;;17.66;52.51;101496.78;5029157;28;20049;-80
2021/12/31 08:30:41;;;;;;;3.28;1.50;;;;;;;17.64;52.65;101497.91;5029987;28;20050;-79
2021/12/31 08:33:08;;;;;;;2.05;1.17;;;;;;;17.65;52.18;101502.41;5019089;28;20080;-79
2021/12/31 08:35:35;;;;;;;2.45;1.27;;;;;;;17.64;52.10;101501.53;5045188;28;20293;-81
2021/12/31 08:38:02;;;;;;;2.00;1.30;;;;;;;17.61;52.17;101488.06;5010527;28;20046;-79
2021/12/31 08:40:29;;;;;;;4.10;1.30;;;;;;;17.62;52.59;101498.06;5009516;28;20049;-80
2021/12/31 08:42:56;;;;;;;2.53;1.23;;;;;;;17.62;52.69;101484.34;5010177;28;20073;-80
2021/12/31 08:45:29;;;;;;;2.72;1.35;;;;;;;17.62;52.72;101497.19;5022362;28;20152;-80
2021/12/31 08:47:57;;;;;;;2.60;1.30;;;;;;;17.62;52.27;101498.06;5028266;28;20053;-79
2021/12/31 08:50:25;;;;;;;2.83;1.20;;;;;;;17.60;52.62;101502.78;5029910;28;20095;-79
2021/12/31 08:52:51;;;;;;;1.98;1.20;;;;;;;17.60;52.49;101508.28;5028130;28;20061;-80
2021/12/31 08:55:18;;;;;;;1.92;1.17;;;;;;;17.60;52.96;101518.38;5035377;28;20128;-79
2021/12/31 08:57:45;;;;;;;1.83;1.13;;;;;;;17.60;52.81;101510.16;5010968;28;20132;-79
2021/12/31 09:00:12;;;;;;;2.25;1.20;;;;;;;17.60;52.74;101513.75;5029751;28;20081;-79
2021/12/31 09:02:39;;;;;;;2.72;1.40;;;;;;;17.60;52.50;101518.38;5027128;28;20394;-79
2021/12/31 09:05:07;;;;;;;1.65;1.10;;;;;;;17.61;52.54;101522.88;5029850;28;20136;-79
2021/12/31 09:07:34;;;;;;;2.15;1.20;;;;;;;17.60;52.83;101518.38;5027417;28;20164;-79
2021/12/31 09:10:01;;;;;;;2.83;1.27;;;;;;;17.60;52.42;101516.50;5029598;28;20057;-79
2021/12/31 09:12:27;;;;;;;2.45;1.40;;;;;;;17.61;52.55;101514.63;5009112;28;20132;-79
2021/12/31 09:14:54;;;;;;;2.20;1.10;;;;;;;17.61;52.71;101518.25;5030034;28;20053;-79
2021/12/31 09:17:22;;;;;;;2.28;1.00;;;;;;;17.62;52.61;101520.03;5010719;28;20079;-78
2021/12/31 09:19:50;;;;;;;3.00;1.40;;;;;;;17.62;52.56;101522.78;5030484;28;20076;-79
2021/12/31 09:22:17;;;;;;;2.67;1.25;;;;;;;17.63;52.86;101520.88;5027466;28;20594;-78
2021/12/31 09:24:43;;;;;;;2.08;1.30;;;;;;;17.62;52.65;101519.16;5028846;28;20057;-79
2021/12/31 09:27:10;;;;;;;2.55;1.10;;;;;;;17.63;52.72;101521.75;5028458;28;20049;-79
2021/12/31 09:29:38;;;;;;;1.80;1.10;;;;;;;17.63;52.65;101527.25;5028052;28;20049;-79
2021/12/31 09:32:05;;;;;;;1.85;1.20;;;;;;;17.64;52.71;101515.25;5025680;28;20049;-79
2021/12/31 09:34:32;;;;;;;3.88;1.45;;;;;;;17.64;52.69;101503.41;5027977;28;20084;-79
2021/12/31 09:36:58;;;;;;;3.40;1.35;;;;;;;17.64;52.31;101501.53;5027669;28;20073;-79
2021/12/31 09:39:25;;;;;;;2.47;1.05;;;;;;;17.66;52.45;101513.25;5027345;28;20069;-79
2021/12/31 09:41:54;;;;;;;2.17;1.30;;;;;;;17.65;52.31;101505.16;5028516;28;20046;-79
2021/12/31 09:44:21;;;;;;;2.60;1.30;;;;;;;17.67;52.57;101503.16;5029298;28;20041;-79
2021/12/31 09:46:48;;;;;;;2.60;1.20;;;;;;;17.66;52.38;101507.75;5029037;28;20117;-78
2021/12/31 09:49:15;;;;;;;2.38;1.20;;;;;;;17.67;52.25;101506.78;5026658;28;20072;-80
2021/12/31 09:51:42;;;;;;;1.63;1.10;;;;;;;17.68;52.59;101514.00;5043965;28;20344;-79
2021/12/31 09:54:10;;;;;;;2.20;1.45;;;;;;;17.69;52.37;101520.38;5028033;28;20077;-79
2021/12/31 09:56:41;;;;;;;2.28;1.25;;;;;;;17.70;52.50;101519.38;5035555;28;20520;-79
2021/12/31 09:59:09;;;;;;;2.30;1.20;;;;;;;17.69;52.64;101514.88;5011006;28;20465;-79
2021/12/31 10:01:55;;;;;;;2.10;1.10;;;;;;;17.69;52.38;101502.03;5010026;28;20041;-79
2021/12/31 10:04:22;;;;;;;2.67;1.23;;;;;;;17.67;52.67;101504.03;5016711;28;20053;-79
2021/12/31 10:07:13;;;;;;;1.83;1.05;;;;;;;17.69;52.24;101499.28;5028483;28;20119;-79
2021/12/31 10:09:40;;;;;;;1.90;1.10;;;;;;;17.67;52.63;101512.25;5036302;28;20060;-79
2021/12/31 10:12:12;;;;;;;2.50;1.20;;;;;;;17.67;52.73;101515.00;5028000;28;20132;-78
2021/12/31 10:14:40;;;;;;;1.98;1.20;;;;;;;17.71;52.84;101510.09;5030337;28;20042;-78
2021/12/31 10:17:10;;;;;;;1.83;1.23;;;;;;;17.71;52.82;101504.59;5028965;28;20515;-79
2021/12/31 10:19:54;;;;;;;1.90;1.40;;;;;;;17.72;52.07;101509.97;5031867;28;20409;-78
2021/12/31 10:22:21;;;;;;;2.33;1.30;;;;;;;17.72;52.66;101514.59;5021051;28;20088;-78
2021/12/31 10:24:48;;;;;;;3.10;1.40;;;;;;;17.73;52.85;101516.34;5031708;28;20072;-79
2021/12/31 10:27:17;;;;;;;1.70;1.20;;;;;;;17.76;52.73;101516.09;5030914;28;20239;-79
2021/12/31 10:29:55;;;;;;;2.10;1.20;;;;;;;17.79;52.07;101524.91;5033809;28;20045;-77
2021/12/31 10:32:25;;;;;;;2.33;1.20;;;;;;;17.77;52.44;101526.94;5032123;28;20132;-78
2021/12/31 10:34:51;;;;;;;2.85;1.17;;;;;;;17.78;52.84;101522.34;5032883;28;20061;-78
2021/12/31 10:37:22;;;;;;;2.08;1.10;;;;;;;17.81;52.73;101524.78;5025089;28;20487;-78
2021/12/31 10:40:00;;;;;;;2.00;1.20;;;;;;;17.84;52.35;101524.53;5013775;28;20081;-78
2021/12/31 10:42:31;;;;;;;3.28;1.45;;;;;;;17.83;52.16;101522.78;5031026;28;20057;-78
2021/12/31 10:45:03;;;;;;;2.03;1.15;;;;;;;17.83;52.55;101520.91;5033405;28;20103;-78
2021/12/31 10:47:33;;;;;;;1.25;0.90;;;;;;;17.84;52.35;101519.03;5021327;28;20052;-78
2021/12/31 10:50:00;;;;;;;1.60;0.90;;;;;;;17.85;52.68;101504.31;5031625;28;20124;-78
2021/12/31 10:52:40;;;;;;;1.48;1.00;;;;;;;17.88;52.49;101493.91;5013426;28;20111;-78
2021/12/31 10:55:24;;;;;;;3.15;1.10;;;;;;;17.90;52.00;101498.41;5028548;28;20073;-78
2021/12/31 10:58:01;;;;;;;2.25;1.15;;;;;;;17.90;52.31;101485.53;5011890;28;20061;-78
2021/12/31 11:00:31;;;;;;;1.52;1.10;;;;;;;17.92;52.47;101477.16;5031905;28;20551;-78
2021/12/31 11:02:58;;;;;;;2.08;1.27;;;;;;;17.92;52.54;101485.41;5036228;28;20054;-78
2021/12/31 11:05:26;;;;;;;2.45;1.30;;;;;;;17.94;52.09;101464.16;5031119;28;20117;-78
2021/12/31 11:07:58;;;;;;;1.70;1.17;;;;;;;17.96;52.11;101453.88;5031257;28;20169;-78
2021/12/31 11:10:37;;;;;;;1.88;1.17;;;;;;;17.97;52.23;101455.63;5042465;28;20050;-78
2021/12/31 11:13:16;;;;;;;1.42;1.00;;;;;;;17.98;52.13;101443.66;5040712;28;20448;-78
2021/12/31 11:15:50;;;;;;;1.58;1.10;;;;;;;17.97;51.93;101450.13;5053794;28;20042;-79
2021/12/31 11:18:23;;;;;;;2.60;1.10;;;;;;;17.97;52.25;101436.41;5014096;28;20048;-79
2021/12/31 11:20:58;;;;;;;2.00;1.10;;;;;;;18.00;52.03;101437.03;5030593;28;20056;-79
2021/12/31 11:23:27;;;;;;;1.77;1.20;;;;;;;17.99;51.98;101446.25;5024067;28;20128;-79
2021/12/31 11:26:04;;;;;;;1.98;1.08;;;;;;;18.01;51.74;101471.72;5030922;28;20052;-79
2021/12/31 11:28:36;;;;;;;3.05;1.38;;;;;;;18.01;51.63;101463.50;5023373;28;20485;-79
2021/12/31 11:31:23;;;;;;;2.30;1.20;;;;;;;17.98;51.75;101465.63;5031237;28;20041;-79